Time;durP1;ratioP1;P1;durP2;ratioP2;P2;SDS_P1;SDS_P2;PMS_P1;PMS_P2;Temp;Humidity;BMP_temperature;BMP_pressure;BME280_temperature;BME280_humidity;BME280_pressure;Samples;Min_cycle;Max_cycle;Signal;HPM_P1;HPM_P2
2022/08/15 00:01:44;;;;;;;;;;;24.90;91.10;;;;;;8370452;28;19954;-70
2022/08/15 00:05:45;;;;;;;;;;;24.90;91.20;;;;;;8419281;28;19928;-70
2022/08/15 00:09:47;;;;;;;;;;;24.90;91.30;;;;;;8388206;28;19928;-70
2022/08/15 00:13:58;;;;;;;;;;;24.90;91.50;;;;;;8410484;28;19930;-70
2022/08/15 00:18:02;;;;;;;;;;;24.90;91.60;;;;;;8427774;28;19920;-70
2022/08/15 00:22:06;;;;;;;;;;;24.90;91.70;;;;;;8419162;28;19954;-70
2022/08/15 00:26:15;;;;;;;;;;;24.90;91.80;;;;;;8421668;28;19920;-70
2022/08/15 00:30:29;;;;;;;;;;;24.90;91.90;;;;;;8402863;28;19950;-70
2022/08/15 00:34:50;;;;;;;;;;;24.90;92.00;;;;;;8405921;28;20001;-70
2022/08/15 00:38:52;;;;;;;;;;;24.90;92.20;;;;;;8399081;28;19920;-70
2022/08/15 00:42:54;;;;;;;;;;;24.80;92.30;;;;;;8408444;28;19931;-70
2022/08/15 00:46:58;;;;;;;;;;;24.80;92.40;;;;;;8402913;28;19976;-70
2022/08/15 00:51:01;;;;;;;;;;;24.80;92.60;;;;;;8422614;28;19920;-70
2022/08/15 00:55:05;;;;;;;;;;;24.80;92.70;;;;;;8382883;28;19920;-70
2022/08/15 00:59:08;;;;;;;;;;;24.80;92.90;;;;;;8417687;28;19924;-70
2022/08/15 01:03:13;;;;;;;;;;;24.70;93.10;;;;;;8411242;28;20391;-70
2022/08/15 01:07:17;;;;;;;;;;;24.70;93.30;;;;;;8412406;28;19919;-70
2022/08/15 01:11:26;;;;;;;;;;;24.70;93.50;;;;;;8422751;28;19928;-70
2022/08/15 01:15:34;;;;;;;;;;;24.60;93.60;;;;;;8406966;28;20322;-70
2022/08/15 01:19:52;;;;;;;;;;;24.60;93.80;;;;;;8421962;28;20030;-70
2022/08/15 01:24:02;;;;;;;;;;;24.60;93.90;;;;;;8406585;28;19920;-70
2022/08/15 01:28:08;;;;;;;;;;;24.50;94.00;;;;;;8392210;28;20642;-70
2022/08/15 01:32:10;;;;;;;;;;;24.50;94.20;;;;;;8414077;28;19927;-70
2022/08/15 01:36:12;;;;;;;;;;;24.50;94.30;;;;;;8406595;28;19920;-70
2022/08/15 01:40:47;;;;;;;;;;;24.50;94.50;;;;;;8407218;28;19938;-70
2022/08/15 01:45:02;;;;;;;;;;;24.50;94.70;;;;;;8413408;28;19920;-69
2022/08/15 01:49:10;;;;;;;;;;;24.40;95.20;;;;;;8400077;28;19924;-69
2022/08/15 01:53:15;;;;;;;;;;;24.20;95.20;;;;;;8423354;28;19943;-70
2022/08/15 01:57:18;;;;;;;;;;;24.20;95.10;;;;;;8398962;28;19964;-70
2022/08/15 02:01:34;;;;;;;;;;;24.20;95.10;;;;;;8427604;28;19920;-70
2022/08/15 02:05:38;;;;;;;;;;;24.20;95.10;;;;;;8433835;28;20378;-70
2022/08/15 02:09:41;;;;;;;;;;;24.30;95.10;;;;;;8408434;28;19924;-70
2022/08/15 02:13:56;;;;;;;;;;;24.30;95.10;;;;;;8426112;28;20270;-70
2022/08/15 02:17:59;;;;;;;;;;;24.30;95.20;;;;;;8406038;28;20234;-69
2022/08/15 02:22:00;;;;;;;;;;;24.30;95.20;;;;;;8381774;28;19928;-70
2022/08/15 02:26:03;;;;;;;;;;;24.20;95.20;;;;;;8408319;28;20371;-70
2022/08/15 02:30:15;;;;;;;;;;;24.20;95.30;;;;;;8422495;28;19920;-70
2022/08/15 02:34:18;;;;;;;;;;;24.20;95.40;;;;;;8404282;28;19923;-70
2022/08/15 02:38:20;;;;;;;;;;;24.10;95.40;;;;;;8410292;28;21463;-70
2022/08/15 02:42:22;;;;;;;;;;;24.10;95.50;;;;;;8407608;28;19927;-70
2022/08/15 02:46:23;;;;;;;;;;;24.00;95.50;;;;;;8420940;28;19927;-70
2022/08/15 02:50:28;;;;;;;;;;;24.00;95.60;;;;;;8417094;28;19920;-70
2022/08/15 02:54:30;;;;;;;;;;;24.00;95.60;;;;;;8415788;28;20291;-70
2022/08/15 02:58:34;;;;;;;;;;;23.90;95.70;;;;;;8437053;28;20331;-70
2022/08/15 03:02:53;;;;;;;;;;;23.80;95.80;;;;;;8372892;28;19924;-69
2022/08/15 03:06:56;;;;;;;;;;;23.80;95.80;;;;;;8426849;28;19928;-70
2022/08/15 03:10:59;;;;;;;;;;;23.70;96.30;;;;;;8411622;28;19920;-70
2022/08/15 03:15:01;;;;;;;;;;;23.60;96.00;;;;;;8419642;28;19930;-70
2022/08/15 03:19:03;;;;;;;;;;;23.50;95.90;;;;;;8414510;28;19927;-70
2022/08/15 03:23:07;;;;;;;;;;;23.40;96.00;;;;;;8402236;28;20320;-70
2022/08/15 03:27:09;;;;;;;;;;;23.40;96.10;;;;;;8399208;28;19920;-70
2022/08/15 03:31:11;;;;;;;;;;;23.40;96.30;;;;;;8429603;28;19919;-70
2022/08/15 03:35:13;;;;;;;;;;;23.30;96.50;;;;;;8416894;28;20428;-70
2022/08/15 03:39:15;;;;;;;;;;;23.30;96.60;;;;;;8401793;28;19926;-70
2022/08/15 03:43:21;;;;;;;;;;;23.30;97.00;;;;;;8416977;28;19921;-70
2022/08/15 03:47:23;;;;;;;;;;;23.30;97.20;;;;;;8418113;28;19920;-69
2022/08/15 03:51:26;;;;;;;;;;;23.20;97.30;;;;;;8396729;28;20341;-69
2022/08/15 03:55:32;;;;;;;;;;;23.10;97.30;;;;;;8421444;28;19955;-69
2022/08/15 03:59:34;;;;;;;;;;;23.10;97.20;;;;;;8423600;28;19924;-69
2022/08/15 04:03:40;;;;;;;;;;;23.10;97.30;;;;;;8421900;27;19927;-69
2022/08/15 04:07:42;;;;;;;;;;;23.10;97.40;;;;;;8417417;28;19920;-69
2022/08/15 04:11:44;;;;;;;;;;;23.10;97.50;;;;;;8437375;28;20367;-69
2022/08/15 04:15:47;;;;;;;;;;;23.10;97.60;;;;;;8434407;28;19927;-69
2022/08/15 04:20:09;;;;;;;;;;;23.10;97.90;;;;;;8432785;27;20569;-69
2022/08/15 04:24:27;;;;;;;;;;;23.00;97.90;;;;;;8433500;28;19923;-69
2022/08/15 04:28:29;;;;;;;;;;;23.00;98.00;;;;;;8417890;28;19919;-69
2022/08/15 04:32:52;;;;;;;;;;;22.90;98.20;;;;;;8408398;28;19958;-69
2022/08/15 04:37:00;;;;;;;;;;;22.80;98.60;;;;;;8419347;28;19920;-69
2022/08/15 04:41:12;;;;;;;;;;;22.80;98.70;;;;;;8415578;28;19924;-69
2022/08/15 04:45:20;;;;;;;;;;;22.80;99.20;;;;;;8418173;28;19964;-70
2022/08/15 04:49:22;;;;;;;;;;;22.80;99.30;;;;;;8435377;28;19919;-69
2022/08/15 04:53:24;;;;;;;;;;;22.90;99.40;;;;;;8442234;28;19919;-69
2022/08/15 04:57:32;;;;;;;;;;;22.90;99.80;;;;;;8415953;28;19972;-69
2022/08/15 05:01:34;;;;;;;;;;;23.00;99.90;;;;;;8417773;28;19919;-69
2022/08/15 05:05:56;;;;;;;;;;;23.00;99.90;;;;;;8431496;28;19920;-69
2022/08/15 05:09:59;;;;;;;;;;;23.00;99.90;;;;;;8401096;28;19919;-69
2022/08/15 05:14:04;;;;;;;;;;;23.00;99.90;;;;;;8381721;28;19927;-69
2022/08/15 05:18:06;;;;;;;;;;;23.00;99.90;;;;;;8412727;28;19939;-69
2022/08/15 05:22:12;;;;;;;;;;;23.00;99.90;;;;;;8413815;28;20321;-69
2022/08/15 05:26:14;;;;;;;;;;;23.00;99.90;;;;;;8426451;28;19935;-69
2022/08/15 05:30:36;;;;;;;;;;;23.00;99.90;;;;;;8427514;28;19978;-69
2022/08/15 05:34:38;;;;;;;;;;;23.00;99.90;;;;;;8415865;28;20007;-69
2022/08/15 05:38:55;;;;;;;;;;;23.00;99.90;;;;;;8416468;28;19927;-69
2022/08/15 05:43:02;;;;;;;;;;;22.90;99.90;;;;;;8454850;28;19923;-69
2022/08/15 05:47:17;;;;;;;;;;;22.90;99.90;;;;;;8465173;28;20394;-70
2022/08/15 05:51:29;;;;;;;;;;;22.90;99.90;;;;;;8427164;28;19924;-70
2022/08/15 05:55:38;;;;;;;;;;;22.90;99.90;;;;;;8399214;28;20268;-70
2022/08/15 05:59:41;;;;;;;;;;;22.90;99.90;;;;;;8394003;28;19932;-70
2022/08/15 06:03:53;;;;;;;;;;;22.90;99.90;;;;;;8391050;28;19924;-70
2022/08/15 06:07:56;;;;;;;;;;;23.00;99.90;;;;;;8392079;28;19940;-70
2022/08/15 06:12:03;;;;;;;;;;;23.10;99.90;;;;;;8395263;28;19924;-70
2022/08/15 06:16:31;;;;;;;;;;;23.30;99.90;;;;;;8396362;28;19921;-70
2022/08/15 06:20:58;;;;;;;;;;;23.40;99.90;;;;;;8391744;28;19967;-69
2022/08/15 06:25:03;;;;;;;;;;;23.40;99.90;;;;;;8392579;28;19927;-70
2022/08/15 06:29:31;;;;;;;;;;;23.50;99.90;;;;;;8398962;28;19982;-70
2022/08/15 06:33:33;;;;;;;;;;;23.60;99.90;;;;;;8392948;28;19932;-70
2022/08/15 06:38:04;;;;;;;;;;;23.70;99.90;;;;;;8404179;28;20257;-69
2022/08/15 06:42:36;;;;;;;;;;;23.90;99.90;;;;;;8392576;28;19982;-70
2022/08/15 06:46:38;;;;;;;;;;;24.00;99.90;;;;;;8391765;28;19924;-69
2022/08/15 06:50:51;;;;;;;;;;;24.10;99.90;;;;;;8394364;28;20023;-69
2022/08/15 06:54:53;;;;;;;;;;;24.20;99.90;;;;;;8393199;28;19920;-69
2022/08/15 06:59:02;;;;;;;;;;;24.30;99.90;;;;;;8390735;28;19935;-69
2022/08/15 07:03:15;;;;;;;;;;;24.40;99.90;;;;;;8391882;28;20292;-70
2022/08/15 07:07:34;;;;;;;;;;;24.40;99.90;;;;;;8392308;28;19928;-69
2022/08/15 07:11:45;;;;;;;;;;;24.30;99.90;;;;;;8393575;28;19935;-70
2022/08/15 07:15:58;;;;;;;;;;;24.30;99.90;;;;;;8408257;27;19924;-69
2022/08/15 07:20:00;;;;;;;;;;;24.30;99.90;;;;;;8389293;28;20339;-69
2022/08/15 07:24:27;;;;;;;;;;;24.30;99.90;;;;;;8405594;27;19978;-69
2022/08/15 07:28:36;;;;;;;;;;;24.30;99.90;;;;;;8389264;28;20015;-70
2022/08/15 07:32:43;;;;;;;;;;;24.30;99.90;;;;;;8384023;28;19970;-70
2022/08/15 07:36:59;;;;;;;;;;;24.20;99.90;;;;;;8389249;28;20018;-70
2022/08/15 07:41:24;;;;;;;;;;;24.20;99.90;;;;;;8389962;28;19920;-69
2022/08/15 07:45:37;;;;;;;;;;;24.10;99.90;;;;;;8385807;28;19924;-70
2022/08/15 07:49:38;;;;;;;;;;;24.00;99.90;;;;;;8389898;28;19932;-69
2022/08/15 07:53:54;;;;;;;;;;;24.00;99.90;;;;;;8392885;28;19920;-69
2022/08/15 07:57:59;;;;;;;;;;;23.90;99.90;;;;;;8381973;28;19939;-69
2022/08/15 08:02:13;;;;;;;;;;;24.00;99.90;;;;;;8390960;28;25117;-69
2022/08/15 08:06:33;;;;;;;;;;;24.00;99.90;;;;;;8389364;28;19926;-69
2022/08/15 08:11:01;;;;;;;;;;;24.00;99.90;;;;;;8388211;28;19931;-69
2022/08/15 08:15:18;;;;;;;;;;;24.10;99.90;;;;;;8392028;28;19928;-69
2022/08/15 08:19:48;;;;;;;;;;;24.10;99.90;;;;;;8386795;28;20006;-70
2022/08/15 08:23:53;;;;;;;;;;;24.20;99.90;;;;;;8390245;28;19928;-69
2022/08/15 08:27:55;;;;;;;;;;;24.20;99.90;;;;;;8386028;28;24743;-70
2022/08/15 08:32:04;;;;;;;;;;;24.10;99.90;;;;;;8388907;28;19985;-70
2022/08/15 08:36:36;;;;;;;;;;;24.20;99.90;;;;;;8389011;28;19925;-70
2022/08/15 08:45:15;;;;;;;;;;;24.20;99.90;;;;;;8390439;28;19974;-70
2022/08/15 08:49:23;;;;;;;;;;;24.20;99.90;;;;;;8386440;28;20275;-70
2022/08/15 08:53:28;;;;;;;;;;;24.30;99.90;;;;;;8390438;28;20313;-70
2022/08/15 08:57:36;;;;;;;;;;;24.30;99.90;;;;;;8387813;28;19931;-69
2022/08/15 09:01:39;;;;;;;;;;;24.40;99.90;;;;;;8376722;28;19931;-69
2022/08/15 09:05:49;;;;;;;;;;;24.40;99.90;;;;;;8387480;28;20380;-70
2022/08/15 09:09:52;;;;;;;;;;;24.50;99.90;;;;;;8388756;28;19921;-70
2022/08/15 09:13:58;;;;;;;;;;;24.50;99.90;;;;;;8391454;28;20384;-69
2022/08/15 09:18:05;;;;;;;;;;;24.50;99.90;;;;;;8386519;28;19927;-69
2022/08/15 09:22:09;;;;;;;;;;;24.50;99.90;;;;;;8386374;28;19927;-69
2022/08/15 09:26:31;;;;;;;;;;;24.50;99.90;;;;;;8405877;28;20284;-69
2022/08/15 09:30:33;;;;;;;;;;;24.50;99.90;;;;;;8387048;28;19932;-69
2022/08/15 09:34:52;;;;;;;;;;;24.50;99.90;;;;;;8387315;28;19981;-69
2022/08/15 09:38:53;;;;;;;;;;;24.50;99.90;;;;;;8403394;28;19920;-69
2022/08/15 09:42:59;;;;;;;;;;;24.60;99.90;;;;;;8390047;28;19923;-70
2022/08/15 09:47:23;;;;;;;;;;;24.70;99.90;;;;;;8389420;28;19928;-70
2022/08/15 09:51:40;;;;;;;;;;;24.70;99.90;;;;;;8388697;28;20303;-69
2022/08/15 09:55:46;;;;;;;;;;;24.80;99.90;;;;;;8389231;28;19924;-69
2022/08/15 09:59:59;;;;;;;;;;;24.80;99.90;;;;;;8387355;28;20252;-69
2022/08/15 10:04:05;;;;;;;;;;;24.80;99.90;;;;;;8384387;28;20337;-70
2022/08/15 10:08:07;;;;;;;;;;;24.70;99.90;;;;;;8388599;28;20347;-69
2022/08/15 10:12:09;;;;;;;;;;;24.60;99.90;;;;;;8387248;28;19928;-69
2022/08/15 10:16:30;;;;;;;;;;;24.70;99.90;;;;;;8387534;28;19924;-70
2022/08/15 10:20:31;;;;;;;;;;;24.70;99.90;;;;;;8391191;28;19931;-70
2022/08/15 10:24:36;;;;;;;;;;;24.70;99.90;;;;;;8391886;28;19924;-69
2022/08/15 10:28:40;;;;;;;;;;;24.70;99.90;;;;;;8381851;28;19935;-69
2022/08/15 10:32:54;;;;;;;8.60;5.68;;;24.70;99.90;;;;;;8395701;28;20003;-69
2022/08/15 10:37:15;;;;;;;;;;;24.70;99.90;;;;;;8395027;28;20044;-69
2022/08/15 10:41:30;;;;;;;;;;;24.70;99.90;;;;;;8393565;28;25069;-69
2022/08/15 10:45:41;;;;;;;;;;;24.60;99.90;;;;;;8390132;28;20288;-69
2022/08/15 10:50:02;;;;;;;;;;;24.50;99.90;;;;;;8391029;28;19920;-69
2022/08/15 10:54:27;;;;;;;;;;;24.50;99.90;;;;;;8393698;28;19927;-69
2022/08/15 10:58:37;;;;;;;;;;;24.50;99.90;;;;;;8391782;28;25106;-69
2022/08/15 11:02:43;;;;;;;;;;;24.50;99.90;;;;;;8393457;28;20396;-69
2022/08/15 11:06:46;;;;;;;;;;;24.50;99.90;;;;;;8390751;28;19931;-69
2022/08/15 11:10:48;;;;;;;;;;;24.50;99.90;;;;;;8389388;28;20362;-69
2022/08/15 11:14:52;;;;;;;;;;;24.50;99.90;;;;;;8386118;28;19920;-69
2022/08/15 11:18:55;;;;;;;;;;;24.40;99.90;;;;;;8390570;28;20318;-69
2022/08/15 11:22:59;;;;;;;;;;;24.40;99.90;;;;;;8389738;28;20390;-70
2022/08/15 11:27:17;;;;;;;8.05;5.72;;;24.40;99.90;;;;;;8389819;28;19943;-70
2022/08/15 11:31:25;;;;;;;10.48;6.78;;;24.50;99.90;;;;;;8392113;28;20079;-69
2022/08/15 11:35:38;;;;;;;9.40;6.65;;;24.50;99.90;;;;;;8374539;28;20067;-70
2022/08/15 11:39:47;;;;;;;8.50;5.75;;;24.50;99.90;;;;;;8388178;28;20139;-69
2022/08/15 11:43:51;;;;;;;8.48;5.38;;;24.50;99.90;;;;;;8373013;28;20048;-70
2022/08/15 11:47:59;;;;;;;8.35;5.30;;;24.50;99.90;;;;;;8389900;28;20052;-70
2022/08/15 11:52:09;;;;;;;9.77;6.32;;;24.50;99.90;;;;;;8388126;28;20058;-69
2022/08/15 11:56:55;;;;;;;9.43;6.45;;;24.60;99.90;;;;;;8389889;28;20143;-69
2022/08/15 12:00:59;;;;;;;8.18;6.63;;;24.60;99.90;;;;;;8387575;28;20048;-69
2022/08/15 12:05:14;;;;;;;7.45;4.95;;;24.60;99.90;;;;;;8389195;28;20407;-70
2022/08/15 12:09:37;;;;;;;7.28;4.88;;;24.60;99.90;;;;;;8392560;28;20075;-70
2022/08/15 12:14:12;;;;;;;8.18;4.78;;;24.60;99.90;;;;;;8390609;28;20436;-69
2022/08/15 12:18:32;;;;;;;6.35;4.05;;;24.70;99.90;;;;;;8390723;28;20104;-70
2022/08/15 12:22:50;;;;;;;6.82;4.22;;;24.70;99.90;;;;;;8389740;28;20102;-70
2022/08/15 12:27:01;;;;;;;5.50;4.38;;;24.70;99.90;;;;;;8391366;28;20041;-70
2022/08/15 12:31:28;;;;;;;6.32;4.88;;;24.70;99.90;;;;;;8390475;28;20131;-70
2022/08/15 12:35:31;;;;;;;7.22;4.43;;;24.80;99.90;;;;;;8389304;28;20534;-69
2022/08/15 12:39:56;;;;;;;6.45;4.10;;;24.80;99.90;;;;;;8386721;28;20040;-69
2022/08/15 12:43:58;;;;;;;7.03;5.53;;;24.80;99.90;;;;;;8386594;28;20052;-69
2022/08/15 12:48:00;;;;;;;6.57;4.50;;;24.80;99.90;;;;;;8385175;28;20163;-70
2022/08/15 12:52:08;;;;;;;7.43;4.70;;;24.80;99.90;;;;;;8387603;28;20048;-70
2022/08/15 12:56:10;;;;;;;6.40;4.80;;;24.80;99.90;;;;;;8383492;28;20125;-69
2022/08/15 13:00:33;;;;;;;6.43;4.80;;;24.90;99.90;;;;;;8373172;28;20067;-69
2022/08/15 13:04:41;;;;;;;8.90;5.18;;;24.90;99.90;;;;;;8387737;28;20058;-70
2022/08/15 13:08:57;;;;;;;10.80;6.35;;;25.00;99.90;;;;;;8388792;28;20048;-70
2022/08/15 13:13:00;;;;;;;8.57;5.97;;;25.00;99.90;;;;;;8389015;28;20063;-70
2022/08/15 13:17:03;;;;;;;8.68;6.20;;;25.00;99.90;;;;;;8388491;28;20510;-70
2022/08/15 13:25:59;;;;;;;10.52;7.72;;;25.10;99.90;;;;;;8382079;28;20049;-70
2022/08/15 13:30:07;;;;;;;10.80;7.35;;;25.20;99.90;;;;;;8382348;28;20411;-69
2022/08/15 13:34:21;;;;;;;10.10;7.25;;;25.20;99.90;;;;;;8386900;28;20049;-70
2022/08/15 13:38:27;;;;;;;10.75;7.20;;;25.20;99.90;;;;;;8385904;28;20044;-70
2022/08/15 13:42:33;;;;;;;10.65;6.05;;;25.30;99.90;;;;;;8390200;28;20045;-70
2022/08/15 13:46:39;;;;;;;8.20;6.05;;;25.40;99.90;;;;;;8390643;28;20087;-70
2022/08/15 13:50:53;;;;;;;9.70;6.47;;;25.40;99.90;;;;;;8385366;28;20044;-70
2022/08/15 13:54:55;;;;;;;;;;;25.50;99.90;;;;;;8384960;28;20044;-70
2022/08/15 13:59:01;;;;;;;;;;;25.50;99.90;;;;;;8393199;28;20280;-69
2022/08/15 14:03:04;;;;;;;;;;;25.60;99.90;;;;;;8389932;28;20393;-70
2022/08/15 14:07:10;;;;;;;;;;;25.70;99.90;;;;;;8396341;28;19924;-70
2022/08/15 14:11:12;;;;;;;;;;;25.80;99.90;;;;;;8396507;28;19928;-70
2022/08/15 14:15:15;;;;;;;;;;;26.00;99.90;;;;;;8392630;28;19920;-70
2022/08/15 14:19:27;;;;;;;;;;;26.20;99.90;;;;;;8394565;28;20360;-71
2022/08/15 14:23:49;;;;;;;;;;;26.30;99.90;;;;;;8396056;28;19931;-70
2022/08/15 14:27:55;;;;;;;;;;;26.40;99.90;;;;;;8393448;28;20415;-70
2022/08/15 14:31:57;;;;;;;;;;;26.40;99.90;;;;;;8392504;28;19924;-70
2022/08/15 14:35:59;;;;;;;;;;;26.40;99.90;;;;;;8394991;28;20014;-70
2022/08/15 14:40:03;;;;;;;;;;;26.30;99.90;;;;;;8393681;28;19924;-70
2022/08/15 14:44:05;;;;;;;;;;;26.30;99.90;;;;;;8394938;28;19931;-70
2022/08/15 14:48:09;;;;;;;;;;;26.30;99.90;;;;;;8373842;28;19920;-70
2022/08/15 14:52:30;;;;;;;;;;;26.20;99.90;;;;;;8394637;28;19999;-70
2022/08/15 14:56:33;;;;;;;;;;;26.30;99.90;;;;;;8372900;28;20290;-69
2022/08/15 15:00:35;;;;;;;;;;;26.30;99.90;;;;;;8393002;28;19921;-69
2022/08/15 15:04:36;;;;;;;;;;;26.50;99.90;;;;;;8390570;28;19920;-70
2022/08/15 15:08:40;;;;;;;;;;;26.60;99.90;;;;;;8392023;28;19936;-70
2022/08/15 15:12:42;;;;;;;;;;;26.60;99.90;;;;;;8392370;28;19929;-70
2022/08/15 15:16:44;;;;;;;;;;;26.70;99.90;;;;;;8404544;27;19924;-70
2022/08/15 15:20:46;;;;;;;;;;;26.70;99.90;;;;;;8390599;28;20347;-70
2022/08/15 15:24:48;;;;;;;;;;;26.80;99.90;;;;;;8392633;28;19932;-70
2022/08/15 15:28:52;;;;;;;;;;;26.80;99.90;;;;;;8385044;28;19925;-70
2022/08/15 15:32:54;;;;;;;;;;;26.80;99.90;;;;;;8389192;28;19931;-70
2022/08/15 15:36:56;;;;;;;;;;;26.80;99.90;;;;;;8383764;28;19921;-70
2022/08/15 15:41:04;;;;;;;;;;;26.80;99.90;;;;;;8389893;28;19924;-70
2022/08/15 15:45:07;;;;;;;;;;;26.80;99.90;;;;;;8387500;28;19927;-69
2022/08/15 15:49:13;;;;;;;;;;;26.90;99.90;;;;;;8373848;28;19927;-69
2022/08/15 15:53:18;;;;;;;;;;;26.80;99.90;;;;;;8384373;28;19924;-69
2022/08/15 15:57:20;;;;;;;;;;;26.90;99.90;;;;;;8382871;28;20283;-69
2022/08/15 16:01:24;;;;;;;;;;;27.20;99.90;;;;;;8391057;28;19927;-69
2022/08/15 16:05:50;;;;;;;;;;;27.40;99.90;;;;;;8382955;28;20244;-69
2022/08/15 16:10:11;;;;;;;;;;;27.40;99.90;;;;;;8381027;28;19921;-69
2022/08/15 16:14:31;;;;;;;;;;;27.20;99.90;;;;;;8385820;28;19924;-69
2022/08/15 16:18:53;;;;;;;;;;;27.20;99.90;;;;;;8378918;28;19927;-69
2022/08/15 16:22:57;;;;;;;;;;;27.20;99.90;;;;;;8376606;28;19928;-69
2022/08/15 16:27:11;;;;;;;;;;;27.30;99.90;;;;;;8361178;28;19924;-69
2022/08/15 16:31:16;;;;;;;;;;;27.70;99.90;;;;;;8377854;28;19923;-69
2022/08/15 16:35:21;;;;;;;;;;;27.70;99.90;;;;;;8382580;28;19920;-70
2022/08/15 16:39:28;;;;;;;;;;;27.70;99.90;;;;;;8366289;28;19935;-70
2022/08/15 16:43:33;;;;;;;;;;;27.80;99.90;;;;;;8382578;28;19931;-69
2022/08/15 16:47:55;;;;;;;;;;;28.10;99.90;;;;;;8378456;28;19929;-69
2022/08/15 16:52:00;;;;;;;;;;;28.50;99.90;;;;;;8382925;28;19925;-69
2022/08/15 16:56:29;;;;;;;;;;;28.90;99.90;;;;;;8375545;28;19967;-69
2022/08/15 17:00:34;;;;;;;;;;;28.70;99.90;;;;;;8383481;28;19942;-70
2022/08/15 17:04:48;;;;;;;;;;;28.40;99.90;;;;;;8383415;28;19960;-69
2022/08/15 17:09:06;;;;;;;;;;;28.10;99.90;;;;;;8383140;28;19928;-69
2022/08/15 17:13:32;;;;;;;;;;;27.80;99.90;;;;;;8382099;28;19931;-69
2022/08/15 17:17:34;;;;;;;;;;;27.60;99.90;;;;;;8378563;28;19949;-69
2022/08/15 17:21:54;;;;;;;;;;;27.40;99.90;;;;;;8384897;28;19924;-69
2022/08/15 17:26:04;;;;;;;;;;;27.20;99.90;;;;;;8385951;28;19920;-70
2022/08/15 17:30:28;;;;;;;;;;;27.10;99.90;;;;;;8387411;28;21652;-70
2022/08/15 17:34:50;;;;;;;;;;;27.10;99.90;;;;;;8396599;27;19960;-69
2022/08/15 17:39:04;;;;;;;;;;;26.90;99.90;;;;;;8391662;28;19947;-70
2022/08/15 17:43:25;;;;;;;;;;;26.90;99.90;;;;;;8390721;28;19924;-69
2022/08/15 17:47:39;;;;;;;;;;;26.80;99.90;;;;;;8385695;28;19921;-69
2022/08/15 17:51:46;;;;;;;;;;;26.80;99.90;;;;;;8393184;28;19935;-69
2022/08/15 17:55:51;;;;;;;;;;;26.70;99.90;;;;;;8389258;28;19935;-69
2022/08/15 18:00:14;;;;;;;;;;;26.60;99.90;;;;;;8388045;28;19967;-69
2022/08/15 18:04:23;;;;;;;;;;;26.50;99.90;;;;;;8388906;28;20383;-69
2022/08/15 18:08:34;;;;;;;;;;;26.50;99.90;;;;;;8383252;28;19927;-69
2022/08/15 18:12:36;;;;;;;;;;;26.40;99.90;;;;;;8368021;28;19932;-70
2022/08/15 18:16:38;;;;;;;;;;;26.40;99.90;;;;;;8383056;28;19924;-69
2022/08/15 18:20:44;;;;;;;;;;;26.40;99.90;;;;;;8393275;28;19920;-69
2022/08/15 18:24:48;;;;;;;;;;;26.30;99.90;;;;;;8386326;28;19924;-69
2022/08/15 18:28:58;;;;;;;;;;;26.30;99.90;;;;;;8377789;28;19939;-70
2022/08/15 18:33:05;;;;;;;;;;;26.20;99.90;;;;;;8387962;28;19924;-69
2022/08/15 18:37:16;;;;;;;;;;;26.10;99.90;;;;;;8386733;28;19932;-70
2022/08/15 18:41:27;;;;;;;;;;;26.10;99.90;;;;;;8386787;28;19924;-70
2022/08/15 18:45:31;;;;;;;;;;;26.00;99.90;;;;;;8372085;28;19920;-70
2022/08/15 18:49:38;;;;;;;;;;;25.90;99.90;;;;;;8372391;28;19971;-69
2022/08/15 18:53:49;;;;;;;;;;;25.80;99.90;;;;;;8386739;28;19920;-69
2022/08/15 18:58:00;;;;;;;;;;;25.70;99.90;;;;;;8381391;28;20032;-69
2022/08/15 19:02:14;;;;;;;;;;;25.60;99.90;;;;;;8384763;28;19931;-70
2022/08/15 19:06:22;;;;;;;;;;;25.60;99.90;;;;;;8384123;28;20011;-70
2022/08/15 19:10:45;;;;;;;;;;;25.50;99.90;;;;;;8384281;28;20098;-69
2022/08/15 19:14:49;;;;;;;;;;;25.50;99.90;;;;;;8383717;28;19939;-70
2022/08/15 19:19:10;;;;;;;;;;;25.40;99.90;;;;;;8388686;28;19935;-70
2022/08/15 19:23:12;;;;;;;;;;;25.40;99.90;;;;;;8400410;27;19920;-70
2022/08/15 19:27:17;;;;;;;;;;;25.30;99.90;;;;;;8377786;28;20295;-69
2022/08/15 19:31:27;;;;;;;;;;;25.30;99.90;;;;;;8382862;28;20404;-69
2022/08/15 19:35:55;;;;;;;;;;;25.20;99.90;;;;;;8380570;28;20011;-69
2022/08/15 19:40:06;;;;;;;;;;;25.10;99.90;;;;;;8381798;28;20367;-69
2022/08/15 19:44:36;;;;;;;;;;;25.10;99.90;;;;;;8381293;28;19943;-69
2022/08/15 19:48:56;;;;;;;;;;;25.00;99.90;;;;;;8379243;28;19967;-70
2022/08/15 19:52:58;;;;;;;;;;;25.00;99.90;;;;;;8375815;28;19921;-69
2022/08/15 19:57:09;;;;;;;;;;;24.90;99.90;;;;;;8382520;28;19928;-69
2022/08/15 20:01:15;;;;;;;;;;;24.90;99.90;;;;;;8383650;28;19947;-70
2022/08/15 20:05:31;;;;;;;;;;;24.80;99.90;;;;;;8379362;28;20390;-70
2022/08/15 20:09:59;;;;;;;;;;;24.80;99.90;;;;;;8382654;28;19982;-70
2022/08/15 20:14:13;;;;;;;;;;;24.70;99.90;;;;;;8386661;28;19927;-69
2022/08/15 20:18:46;;;;;;;;;;;24.70;99.90;;;;;;8380497;28;19958;-69
2022/08/15 20:23:08;;;;;;;;;;;24.60;99.90;;;;;;8381291;28;19967;-70
2022/08/15 20:27:15;;;;;;;;;;;24.50;99.90;;;;;;8374371;28;20082;-69
2022/08/15 20:31:39;;;;;;;;;;;24.40;99.90;;;;;;8383130;28;20579;-70
2022/08/15 20:36:01;;;;;;;;;;;24.20;99.90;;;;;;8383528;28;19952;-70
2022/08/15 20:40:05;;;;;;;;;;;24.10;99.90;;;;;;8382536;28;20323;-69
2022/08/15 20:44:28;;;;;;;;;;;24.00;99.90;;;;;;8380999;28;20267;-69
2022/08/15 20:48:35;;;;;;;;;;;24.00;99.90;;;;;;8375553;28;20378;-69
2022/08/15 20:52:46;;;;;;;;;;;23.90;99.90;;;;;;8382484;28;19952;-69
2022/08/15 20:56:58;;;;;;;;;;;23.80;99.90;;;;;;8379127;28;19928;-69
2022/08/15 21:01:19;;;;;;;;;;;23.80;99.90;;;;;;8383672;28;20022;-70
2022/08/15 21:05:24;;;;;;;;;;;23.60;99.90;;;;;;8395420;28;19927;-69
2022/08/15 21:10:01;;;;;;;;;;;23.60;99.90;;;;;;8404691;28;19949;-69
2022/08/15 21:14:06;;;;;;;;;;;23.50;99.90;;;;;;8407628;28;20386;-70
2022/08/15 21:18:56;;;;;;;;;;;23.50;99.90;;;;;;8404689;28;19978;-69
2022/08/15 21:23:00;;;;;;;;;;;23.40;99.90;;;;;;8390767;28;20387;-69
2022/08/15 21:27:10;;;;;;;;;;;23.40;99.90;;;;;;8406795;28;19931;-69
2022/08/15 21:31:15;;;;;;;;;;;23.40;99.90;;;;;;8391855;28;19924;-70
2022/08/15 21:35:16;;;;;;;;;;;23.40;99.90;;;;;;8380730;28;19920;-69
2022/08/15 21:39:30;;;;;;;;;;;23.40;99.90;;;;;;8399938;28;19920;-69
2022/08/15 21:43:43;;;;;;;;;;;23.40;99.90;;;;;;8397637;28;20079;-69
2022/08/15 21:48:11;;;;;;;;;;;23.30;99.90;;;;;;8404025;28;20367;-70
2022/08/15 21:52:44;;;;;;;;;;;23.30;99.90;;;;;;8392299;28;19970;-70
2022/08/15 21:56:50;;;;;;;;;;;23.30;99.90;;;;;;8403152;28;20283;-69
2022/08/15 22:00:56;;;;;;;;;;;23.30;99.90;;;;;;8397728;28;19935;-70
2022/08/15 22:04:58;;;;;;;;;;;23.20;99.90;;;;;;8397716;28;20363;-69
2022/08/15 22:08:59;;;;;;;;;;;23.20;99.90;;;;;;8398696;28;19931;-70
2022/08/15 22:13:02;;;;;;;;;;;23.20;99.90;;;;;;8394682;28;20010;-69
2022/08/15 22:17:04;;;;;;;;;;;23.20;99.90;;;;;;8412848;28;19935;-70
2022/08/15 22:21:07;;;;;;;;;;;23.10;99.90;;;;;;8410632;28;20291;-69
2022/08/15 22:25:13;;;;;;;;;;;23.00;99.90;;;;;;8403683;28;19998;-70
2022/08/15 22:29:20;;;;;;;;;;;23.00;99.90;;;;;;8388858;28;19931;-69
2022/08/15 22:33:22;;;;;;;;;;;23.00;99.90;;;;;;8388026;28;19931;-70
2022/08/15 22:37:24;;;;;;;;;;;23.00;99.90;;;;;;8408716;27;19967;-70
2022/08/15 22:41:35;;;;;;;;;;;23.00;99.90;;;;;;8394513;28;19924;-70
2022/08/15 22:45:39;;;;;;;;;;;23.00;99.90;;;;;;8407944;28;19928;-69
2022/08/15 22:49:48;;;;;;;;;;;23.00;99.90;;;;;;8400426;28;20382;-69
2022/08/15 22:53:56;;;;;;;;;;;22.90;99.90;;;;;;8407538;28;19927;-69
2022/08/15 22:57:58;;;;;;;;;;;22.90;99.90;;;;;;8406397;28;19935;-69
2022/08/15 23:02:02;;;;;;;;;;;22.80;99.90;;;;;;8398097;28;19920;-69
2022/08/15 23:06:04;;;;;;;;;;;22.80;99.90;;;;;;8398793;28;19924;-69
2022/08/15 23:10:24;;;;;;;;;;;22.80;99.90;;;;;;8410048;28;20032;-69
2022/08/15 23:14:29;;;;;;;;;;;22.70;99.90;;;;;;8398707;28;20368;-69
2022/08/15 23:18:37;;;;;;;;;;;22.70;99.90;;;;;;8389474;28;20215;-69
2022/08/15 23:22:42;;;;;;;;;;;22.60;99.90;;;;;;8409349;27;19967;-69
2022/08/15 23:26:46;;;;;;;;;;;22.60;99.90;;;;;;8383496;28;19932;-69
2022/08/15 23:31:04;;;;;;;;;;;22.50;99.90;;;;;;8392275;28;19928;-69
2022/08/15 23:35:10;;;;;;;;;;;22.40;99.90;;;;;;8390357;28;19934;-69
2022/08/15 23:39:14;;;;;;;;;;;22.40;99.90;;;;;;8401834;28;19927;-69
2022/08/15 23:43:15;;;;;;;;;;;22.30;99.90;;;;;;8387689;28;19939;-69
2022/08/15 23:47:17;;;;;;;;;;;22.30;99.90;;;;;;8400911;28;20588;-69
2022/08/15 23:51:23;;;;;;;;;;;22.20;99.90;;;;;;8404405;28;19928;-69
2022/08/15 23:55:27;;;;;;;;;;;22.20;99.90;;;;;;8387705;28;19924;-69
2022/08/15 23:59:31;;;;;;;;;;;22.10;99.90;;;;;;8407361;28;19920;-69
